sensor_id;sensor_type;location;lat;lon;timestamp;P1;durP1;ratioP1;P2;durP2;ratioP2
47403;SDS011;33157;51.508;4.288;2022-09-09T00:04:30;11.30;;;1.85;;
47403;SDS011;33157;51.508;4.288;2022-09-09T00:09:50;5.38;;;1.98;;
47403;SDS011;33157;51.508;4.288;2022-09-09T00:15:14;9.05;;;2.17;;
47403;SDS011;33157;51.508;4.288;2022-09-09T00:25:41;7.22;;;2.28;;
47403;SDS011;33157;51.508;4.288;2022-09-09T00:30:55;11.45;;;2.05;;
47403;SDS011;33157;51.508;4.288;2022-09-09T00:36:02;7.55;;;2.05;;
47403;SDS011;33157;51.508;4.288;2022-09-09T00:41:13;8.38;;;1.90;;
47403;SDS011;33157;51.508;4.288;2022-09-09T00:57:30;12.23;;;2.33;;
47403;SDS011;33157;51.508;4.288;2022-09-09T01:42:21;7.40;;;2.80;;
47403;SDS011;33157;51.508;4.288;2022-09-09T01:47:49;8.13;;;2.65;;
47403;SDS011;33157;51.508;4.288;2022-09-09T01:52:54;5.88;;;2.40;;
47403;SDS011;33157;51.508;4.288;2022-09-09T01:58:43;12.32;;;3.30;;
47403;SDS011;33157;51.508;4.288;2022-09-09T02:03:31;10.30;;;3.78;;
47403;SDS011;33157;51.508;4.288;2022-09-09T02:08:56;7.40;;;3.03;;
47403;SDS011;33157;51.508;4.288;2022-09-09T02:14:37;12.13;;;2.88;;
47403;SDS011;33157;51.508;4.288;2022-09-09T02:20:27;5.68;;;2.00;;
47403;SDS011;33157;51.508;4.288;2022-09-09T02:25:46;7.95;;;1.88;;
47403;SDS011;33157;51.508;4.288;2022-09-09T02:31:00;8.38;;;1.88;;
47403;SDS011;33157;51.508;4.288;2022-09-09T02:42:52;4.70;;;1.20;;
47403;SDS011;33157;51.508;4.288;2022-09-09T02:48:08;6.93;;;1.00;;
47403;SDS011;33157;51.508;4.288;2022-09-09T02:58:55;10.32;;;1.92;;
47403;SDS011;33157;51.508;4.288;2022-09-09T03:04:28;8.50;;;2.20;;
47403;SDS011;33157;51.508;4.288;2022-09-09T03:09:55;13.82;;;3.17;;
47403;SDS011;33157;51.508;4.288;2022-09-09T03:15:14;11.23;;;1.73;;
47403;SDS011;33157;51.508;4.288;2022-09-09T03:20:17;12.05;;;2.42;;
47403;SDS011;33157;51.508;4.288;2022-09-09T03:37:04;8.77;;;2.10;;
47403;SDS011;33157;51.508;4.288;2022-09-09T03:48:08;12.50;;;2.55;;
47403;SDS011;33157;51.508;4.288;2022-09-09T03:53:50;11.25;;;2.20;;
47403;SDS011;33157;51.508;4.288;2022-09-09T03:59:18;9.15;;;2.08;;
47403;SDS011;33157;51.508;4.288;2022-09-09T04:04:49;10.18;;;2.10;;
47403;SDS011;33157;51.508;4.288;2022-09-09T04:09:58;9.52;;;1.95;;
47403;SDS011;33157;51.508;4.288;2022-09-09T04:20:58;13.10;;;2.65;;
47403;SDS011;33157;51.508;4.288;2022-09-09T04:26:36;9.50;;;2.70;;
47403;SDS011;33157;51.508;4.288;2022-09-09T04:31:43;16.42;;;2.85;;
47403;SDS011;33157;51.508;4.288;2022-09-09T04:37:04;9.40;;;2.15;;
47403;SDS011;33157;51.508;4.288;2022-09-09T04:42:15;12.30;;;2.40;;
47403;SDS011;33157;51.508;4.288;2022-09-09T04:47:32;11.48;;;2.28;;
47403;SDS011;33157;51.508;4.288;2022-09-09T04:58:36;15.07;;;2.88;;
47403;SDS011;33157;51.508;4.288;2022-09-09T05:04:34;15.70;;;3.03;;
47403;SDS011;33157;51.508;4.288;2022-09-09T05:09:42;16.48;;;2.95;;
47403;SDS011;33157;51.508;4.288;2022-09-09T05:15:07;12.95;;;2.50;;
47403;SDS011;33157;51.508;4.288;2022-09-09T05:20:33;10.07;;;2.28;;
47403;SDS011;33157;51.508;4.288;2022-09-09T05:25:53;14.68;;;2.53;;
47403;SDS011;33157;51.508;4.288;2022-09-09T05:31:26;9.80;;;2.22;;
47403;SDS011;33157;51.508;4.288;2022-09-09T05:42:23;10.73;;;2.15;;
47403;SDS011;33157;51.508;4.288;2022-09-09T05:47:26;10.93;;;2.47;;
47403;SDS011;33157;51.508;4.288;2022-09-09T05:52:37;11.55;;;2.97;;
47403;SDS011;33157;51.508;4.288;2022-09-09T05:57:43;9.88;;;2.40;;
47403;SDS011;33157;51.508;4.288;2022-09-09T06:09:41;12.10;;;2.83;;
47403;SDS011;33157;51.508;4.288;2022-09-09T06:20:30;11.60;;;2.10;;
47403;SDS011;33157;51.508;4.288;2022-09-09T06:25:47;10.10;;;2.20;;
47403;SDS011;33157;51.508;4.288;2022-09-09T06:30:49;14.85;;;2.55;;
47403;SDS011;33157;51.508;4.288;2022-09-09T06:36:39;13.48;;;2.55;;
47403;SDS011;33157;51.508;4.288;2022-09-09T06:47:38;17.10;;;2.38;;
47403;SDS011;33157;51.508;4.288;2022-09-09T06:52:52;7.60;;;1.92;;
47403;SDS011;33157;51.508;4.288;2022-09-09T06:58:16;12.30;;;2.10;;
47403;SDS011;33157;51.508;4.288;2022-09-09T07:09:48;13.18;;;2.15;;
47403;SDS011;33157;51.508;4.288;2022-09-09T07:15:20;9.40;;;2.37;;
47403;SDS011;33157;51.508;4.288;2022-09-09T07:20:55;13.27;;;2.95;;
47403;SDS011;33157;51.508;4.288;2022-09-09T07:26:51;8.13;;;2.05;;
47403;SDS011;33157;51.508;4.288;2022-09-09T07:32:41;9.45;;;2.10;;
47403;SDS011;33157;51.508;4.288;2022-09-09T07:38:40;13.13;;;2.30;;
47403;SDS011;33157;51.508;4.288;2022-09-09T07:50:00;9.63;;;2.05;;
47403;SDS011;33157;51.508;4.288;2022-09-09T08:00:48;15.25;;;2.28;;
47403;SDS011;33157;51.508;4.288;2022-09-09T08:06:29;10.20;;;2.20;;
47403;SDS011;33157;51.508;4.288;2022-09-09T08:12:02;11.73;;;2.08;;
47403;SDS011;33157;51.508;4.288;2022-09-09T08:17:52;14.35;;;2.55;;
47403;SDS011;33157;51.508;4.288;2022-09-09T08:23:15;10.10;;;2.35;;
47403;SDS011;33157;51.508;4.288;2022-09-09T08:28:28;12.80;;;2.15;;
47403;SDS011;33157;51.508;4.288;2022-09-09T08:34:23;15.65;;;2.83;;
47403;SDS011;33157;51.508;4.288;2022-09-09T08:40:03;10.80;;;2.10;;
47403;SDS011;33157;51.508;4.288;2022-09-09T08:51:04;8.15;;;1.73;;
47403;SDS011;33157;51.508;4.288;2022-09-09T09:02:52;7.40;;;2.00;;
47403;SDS011;33157;51.508;4.288;2022-09-09T09:13:18;7.20;;;1.92;;
47403;SDS011;33157;51.508;4.288;2022-09-09T09:18:24;7.50;;;1.60;;
47403;SDS011;33157;51.508;4.288;2022-09-09T09:23:25;8.57;;;1.67;;
47403;SDS011;33157;51.508;4.288;2022-09-09T09:28:42;12.25;;;1.60;;
47403;SDS011;33157;51.508;4.288;2022-09-09T09:33:48;9.65;;;1.70;;
47403;SDS011;33157;51.508;4.288;2022-09-09T09:45:06;10.75;;;1.80;;
47403;SDS011;33157;51.508;4.288;2022-09-09T09:50:18;7.28;;;1.88;;
47403;SDS011;33157;51.508;4.288;2022-09-09T09:55:20;11.18;;;2.20;;
47403;SDS011;33157;51.508;4.288;2022-09-09T10:00:27;11.38;;;2.60;;
47403;SDS011;33157;51.508;4.288;2022-09-09T10:05:55;10.23;;;1.92;;
47403;SDS011;33157;51.508;4.288;2022-09-09T10:32:44;9.38;;;2.28;;
47403;SDS011;33157;51.508;4.288;2022-09-09T10:50:15;7.68;;;1.50;;
47403;SDS011;33157;51.508;4.288;2022-09-09T10:55:27;9.50;;;2.08;;
47403;SDS011;33157;51.508;4.288;2022-09-09T11:06:35;9.35;;;2.05;;
47403;SDS011;33157;51.508;4.288;2022-09-09T11:12:15;8.07;;;1.67;;
47403;SDS011;33157;51.508;4.288;2022-09-09T11:17:16;7.30;;;1.67;;
47403;SDS011;33157;51.508;4.288;2022-09-09T11:22:54;6.05;;;1.73;;
47403;SDS011;33157;51.508;4.288;2022-09-09T11:45:38;5.20;;;1.30;;
47403;SDS011;33157;51.508;4.288;2022-09-09T11:51:28;6.28;;;1.27;;
47403;SDS011;33157;51.508;4.288;2022-09-09T12:03:08;7.25;;;1.52;;
47403;SDS011;33157;51.508;4.288;2022-09-09T12:09:08;5.53;;;2.20;;
47403;SDS011;33157;51.508;4.288;2022-09-09T12:20:50;4.27;;;1.67;;
47403;SDS011;33157;51.508;4.288;2022-09-09T12:32:00;5.88;;;1.60;;
47403;SDS011;33157;51.508;4.288;2022-09-09T12:37:38;5.95;;;1.33;;
47403;SDS011;33157;51.508;4.288;2022-09-09T12:43:22;6.82;;;1.40;;
47403;SDS011;33157;51.508;4.288;2022-09-09T12:49:04;9.57;;;1.75;;
47403;SDS011;33157;51.508;4.288;2022-09-09T12:53:58;6.75;;;1.77;;
47403;SDS011;33157;51.508;4.288;2022-09-09T13:05:18;6.13;;;2.00;;
47403;SDS011;33157;51.508;4.288;2022-09-09T13:10:33;7.60;;;1.70;;
47403;SDS011;33157;51.508;4.288;2022-09-09T13:15:59;6.03;;;1.52;;
47403;SDS011;33157;51.508;4.288;2022-09-09T13:21:00;8.90;;;2.30;;
47403;SDS011;33157;51.508;4.288;2022-09-09T13:26:02;6.88;;;1.83;;
47403;SDS011;33157;51.508;4.288;2022-09-09T13:31:19;8.98;;;2.42;;
47403;SDS011;33157;51.508;4.288;2022-09-09T13:36:31;7.75;;;2.90;;
47403;SDS011;33157;51.508;4.288;2022-09-09T13:47:00;8.43;;;1.70;;
47403;SDS011;33157;51.508;4.288;2022-09-09T13:52:10;9.15;;;1.77;;
47403;SDS011;33157;51.508;4.288;2022-09-09T13:57:34;5.88;;;2.53;;
47403;SDS011;33157;51.508;4.288;2022-09-09T14:03:05;10.10;;;2.80;;
47403;SDS011;33157;51.508;4.288;2022-09-09T14:08:07;9.95;;;2.65;;
47403;SDS011;33157;51.508;4.288;2022-09-09T14:13:20;8.65;;;2.47;;
47403;SDS011;33157;51.508;4.288;2022-09-09T14:18:22;4.53;;;1.93;;
47403;SDS011;33157;51.508;4.288;2022-09-09T14:23:23;6.22;;;1.30;;
47403;SDS011;33157;51.508;4.288;2022-09-09T14:28:24;3.22;;;1.02;;
47403;SDS011;33157;51.508;4.288;2022-09-09T14:33:25;4.95;;;1.38;;
47403;SDS011;33157;51.508;4.288;2022-09-09T14:38:37;4.43;;;1.58;;
47403;SDS011;33157;51.508;4.288;2022-09-09T14:43:46;4.20;;;1.33;;
47403;SDS011;33157;51.508;4.288;2022-09-09T14:48:50;8.13;;;1.23;;
47403;SDS011;33157;51.508;4.288;2022-09-09T14:54:09;4.07;;;1.48;;
47403;SDS011;33157;51.508;4.288;2022-09-09T14:59:10;5.53;;;1.13;;
47403;SDS011;33157;51.508;4.288;2022-09-09T15:04:14;5.63;;;1.58;;
47403;SDS011;33157;51.508;4.288;2022-09-09T15:09:19;8.45;;;2.20;;
47403;SDS011;33157;51.508;4.288;2022-09-09T15:14:45;6.78;;;1.83;;
47403;SDS011;33157;51.508;4.288;2022-09-09T15:19:49;5.43;;;1.58;;
47403;SDS011;33157;51.508;4.288;2022-09-09T15:24:53;4.85;;;1.27;;
47403;SDS011;33157;51.508;4.288;2022-09-09T15:29:54;3.60;;;1.35;;
47403;SDS011;33157;51.508;4.288;2022-09-09T15:34:54;6.85;;;1.98;;
47403;SDS011;33157;51.508;4.288;2022-09-09T15:39:55;10.93;;;2.40;;
47403;SDS011;33157;51.508;4.288;2022-09-09T15:44:58;6.95;;;2.30;;
47403;SDS011;33157;51.508;4.288;2022-09-09T15:50:00;9.52;;;2.00;;
47403;SDS011;33157;51.508;4.288;2022-09-09T15:55:00;9.02;;;2.50;;
47403;SDS011;33157;51.508;4.288;2022-09-09T16:00:01;10.30;;;2.47;;
47403;SDS011;33157;51.508;4.288;2022-09-09T16:05:03;9.88;;;1.85;;
47403;SDS011;33157;51.508;4.288;2022-09-09T16:10:04;10.55;;;2.47;;
47403;SDS011;33157;51.508;4.288;2022-09-09T16:15:06;13.20;;;3.08;;
47403;SDS011;33157;51.508;4.288;2022-09-09T16:20:07;7.40;;;1.75;;
47403;SDS011;33157;51.508;4.288;2022-09-09T16:25:08;9.45;;;1.40;;
47403;SDS011;33157;51.508;4.288;2022-09-09T16:30:10;9.07;;;1.98;;
47403;SDS011;33157;51.508;4.288;2022-09-09T16:35:11;7.78;;;2.17;;
47403;SDS011;33157;51.508;4.288;2022-09-09T16:40:11;9.80;;;2.22;;
47403;SDS011;33157;51.508;4.288;2022-09-09T16:45:12;9.35;;;2.85;;
47403;SDS011;33157;51.508;4.288;2022-09-09T16:50:12;4.55;;;1.60;;
47403;SDS011;33157;51.508;4.288;2022-09-09T16:55:13;3.58;;;1.33;;
47403;SDS011;33157;51.508;4.288;2022-09-09T17:00:14;6.22;;;2.20;;
47403;SDS011;33157;51.508;4.288;2022-09-09T17:05:16;7.10;;;2.58;;
47403;SDS011;33157;51.508;4.288;2022-09-09T17:10:17;8.55;;;2.65;;
47403;SDS011;33157;51.508;4.288;2022-09-09T17:15:17;5.70;;;2.00;;
47403;SDS011;33157;51.508;4.288;2022-09-09T17:20:19;9.23;;;2.67;;
47403;SDS011;33157;51.508;4.288;2022-09-09T17:25:19;5.10;;;1.52;;
47403;SDS011;33157;51.508;4.288;2022-09-09T17:30:23;6.10;;;1.80;;
47403;SDS011;33157;51.508;4.288;2022-09-09T17:35:23;7.68;;;2.00;;
47403;SDS011;33157;51.508;4.288;2022-09-09T17:40:24;6.18;;;2.35;;
47403;SDS011;33157;51.508;4.288;2022-09-09T17:45:24;5.88;;;1.70;;
47403;SDS011;33157;51.508;4.288;2022-09-09T17:50:25;6.78;;;2.00;;
47403;SDS011;33157;51.508;4.288;2022-09-09T17:55:25;6.25;;;1.80;;
47403;SDS011;33157;51.508;4.288;2022-09-09T18:00:26;6.50;;;1.50;;
47403;SDS011;33157;51.508;4.288;2022-09-09T18:05:27;9.00;;;1.75;;
47403;SDS011;33157;51.508;4.288;2022-09-09T18:10:27;10.35;;;2.25;;
47403;SDS011;33157;51.508;4.288;2022-09-09T18:15:27;9.10;;;2.38;;
47403;SDS011;33157;51.508;4.288;2022-09-09T18:20:31;9.95;;;2.58;;
47403;SDS011;33157;51.508;4.288;2022-09-09T18:25:39;7.90;;;2.58;;
47403;SDS011;33157;51.508;4.288;2022-09-09T18:30:39;6.20;;;2.67;;
47403;SDS011;33157;51.508;4.288;2022-09-09T18:35:40;12.32;;;2.40;;
47403;SDS011;33157;51.508;4.288;2022-09-09T18:40:40;8.13;;;2.33;;
47403;SDS011;33157;51.508;4.288;2022-09-09T18:45:41;7.70;;;2.42;;
47403;SDS011;33157;51.508;4.288;2022-09-09T18:50:41;7.70;;;2.60;;
47403;SDS011;33157;51.508;4.288;2022-09-09T18:55:42;11.63;;;3.63;;
47403;SDS011;33157;51.508;4.288;2022-09-09T19:00:44;12.57;;;3.45;;
47403;SDS011;33157;51.508;4.288;2022-09-09T19:05:45;10.48;;;3.70;;
47403;SDS011;33157;51.508;4.288;2022-09-09T19:10:46;8.50;;;3.40;;
47403;SDS011;33157;51.508;4.288;2022-09-09T19:15:47;9.93;;;4.63;;
47403;SDS011;33157;51.508;4.288;2022-09-09T19:20:47;9.48;;;4.45;;
47403;SDS011;33157;51.508;4.288;2022-09-09T19:25:50;11.18;;;5.97;;
47403;SDS011;33157;51.508;4.288;2022-09-09T19:30:51;11.27;;;5.85;;
47403;SDS011;33157;51.508;4.288;2022-09-09T19:35:58;9.75;;;4.88;;
47403;SDS011;33157;51.508;4.288;2022-09-09T19:41:02;10.32;;;4.95;;
47403;SDS011;33157;51.508;4.288;2022-09-09T19:46:08;15.52;;;3.53;;
47403;SDS011;33157;51.508;4.288;2022-09-09T19:51:11;8.82;;;3.22;;
47403;SDS011;33157;51.508;4.288;2022-09-09T19:56:17;12.15;;;3.03;;
47403;SDS011;33157;51.508;4.288;2022-09-09T20:01:22;6.32;;;2.70;;
47403;SDS011;33157;51.508;4.288;2022-09-09T20:06:25;5.68;;;2.60;;
47403;SDS011;33157;51.508;4.288;2022-09-09T20:11:28;8.68;;;3.30;;
47403;SDS011;33157;51.508;4.288;2022-09-09T20:16:40;13.23;;;4.40;;
47403;SDS011;33157;51.508;4.288;2022-09-09T20:21:45;8.25;;;3.97;;
47403;SDS011;33157;51.508;4.288;2022-09-09T20:27:04;14.88;;;4.25;;
47403;SDS011;33157;51.508;4.288;2022-09-09T20:32:14;13.70;;;4.10;;
47403;SDS011;33157;51.508;4.288;2022-09-09T20:37:19;12.15;;;4.07;;
47403;SDS011;33157;51.508;4.288;2022-09-09T20:42:23;14.75;;;4.10;;
47403;SDS011;33157;51.508;4.288;2022-09-09T20:47:24;13.07;;;3.95;;
47403;SDS011;33157;51.508;4.288;2022-09-09T20:52:25;12.88;;;3.50;;
47403;SDS011;33157;51.508;4.288;2022-09-09T20:57:29;11.68;;;3.08;;
47403;SDS011;33157;51.508;4.288;2022-09-09T21:02:30;13.75;;;2.75;;
47403;SDS011;33157;51.508;4.288;2022-09-09T21:07:38;12.75;;;2.60;;
47403;SDS011;33157;51.508;4.288;2022-09-09T21:12:50;10.27;;;2.65;;
47403;SDS011;33157;51.508;4.288;2022-09-09T21:18:05;11.20;;;2.22;;
47403;SDS011;33157;51.508;4.288;2022-09-09T21:23:06;12.43;;;2.80;;
47403;SDS011;33157;51.508;4.288;2022-09-09T21:28:10;13.98;;;2.35;;
47403;SDS011;33157;51.508;4.288;2022-09-09T21:33:11;11.10;;;2.13;;
47403;SDS011;33157;51.508;4.288;2022-09-09T21:38:13;10.88;;;2.75;;
47403;SDS011;33157;51.508;4.288;2022-09-09T21:43:19;10.75;;;2.78;;
47403;SDS011;33157;51.508;4.288;2022-09-09T21:48:22;12.82;;;3.15;;
47403;SDS011;33157;51.508;4.288;2022-09-09T21:59:02;11.35;;;3.67;;
47403;SDS011;33157;51.508;4.288;2022-09-09T22:04:08;17.58;;;3.50;;
47403;SDS011;33157;51.508;4.288;2022-09-09T22:09:28;10.73;;;2.05;;
47403;SDS011;33157;51.508;4.288;2022-09-09T22:15:23;14.93;;;2.88;;
47403;SDS011;33157;51.508;4.288;2022-09-09T22:20:31;10.57;;;2.92;;
47403;SDS011;33157;51.508;4.288;2022-09-09T22:25:38;13.38;;;3.47;;
47403;SDS011;33157;51.508;4.288;2022-09-09T22:30:39;13.85;;;3.35;;
47403;SDS011;33157;51.508;4.288;2022-09-09T22:36:10;13.82;;;4.03;;
47403;SDS011;33157;51.508;4.288;2022-09-09T22:41:37;12.18;;;4.90;;
47403;SDS011;33157;51.508;4.288;2022-09-09T22:46:47;14.07;;;4.50;;
47403;SDS011;33157;51.508;4.288;2022-09-09T22:51:58;18.10;;;4.35;;
47403;SDS011;33157;51.508;4.288;2022-09-09T23:02:46;17.63;;;4.90;;
47403;SDS011;33157;51.508;4.288;2022-09-09T23:07:52;17.65;;;4.47;;
47403;SDS011;33157;51.508;4.288;2022-09-09T23:13:13;14.20;;;4.82;;
47403;SDS011;33157;51.508;4.288;2022-09-09T23:18:24;20.17;;;5.20;;
47403;SDS011;33157;51.508;4.288;2022-09-09T23:23:28;22.52;;;5.68;;
47403;SDS011;33157;51.508;4.288;2022-09-09T23:39:48;15.05;;;6.68;;
47403;SDS011;33157;51.508;4.288;2022-09-09T23:45:42;18.98;;;7.15;;
47403;SDS011;33157;51.508;4.288;2022-09-09T23:56:40;22.75;;;8.45;;
